createdAt,value
2018-09-22T00:00:22.555Z,8.03
2018-09-22T00:02:53.082Z,8.27
2018-09-22T00:05:23.579Z,8.97
2018-09-22T00:07:53.857Z,9.50
2018-09-22T00:10:24.493Z,8.30
2018-09-22T00:12:54.827Z,7.73
2018-09-22T00:15:25.361Z,8.10
2018-09-22T00:17:58.573Z,7.00
2018-09-22T00:20:29.122Z,8.40
2018-09-22T00:22:59.625Z,9.10
2018-09-22T00:25:29.848Z,8.60
2018-09-22T00:28:00.400Z,10.13
2018-09-22T00:30:31.242Z,10.10
2018-09-22T00:33:01.769Z,9.90
2018-09-22T00:35:32.072Z,10.40
2018-09-22T00:38:02.366Z,11.43
2018-09-22T00:40:32.948Z,9.67
2018-09-22T00:43:03.504Z,8.00
2018-09-22T00:45:33.991Z,7.50
2018-09-22T00:48:04.268Z,5.70
2018-09-22T00:50:34.775Z,4.50
2018-09-22T00:53:05.324Z,3.43
2018-09-22T00:55:35.851Z,2.93
2018-09-22T00:58:06.511Z,2.27
2018-09-22T01:00:37.083Z,2.30
2018-09-22T01:03:07.551Z,1.50
2018-09-22T01:05:38.109Z,1.30
2018-09-22T01:08:08.625Z,0.70
2018-09-22T01:10:39.491Z,0.77
2018-09-22T01:13:10.688Z,1.00
2018-09-22T01:15:41.247Z,1.00
2018-09-22T01:18:11.915Z,0.97
2018-09-22T01:20:42.528Z,1.00
2018-09-22T01:23:12.788Z,1.10
2018-09-22T01:25:45.024Z,1.17
2018-09-22T01:28:15.858Z,1.30
2018-09-22T01:30:46.679Z,1.13
2018-09-22T01:33:17.172Z,0.90
2018-09-22T01:35:47.731Z,1.03
2018-09-22T01:38:17.932Z,1.17
2018-09-22T01:40:48.443Z,1.47
2018-09-22T01:43:19.870Z,1.13
2018-09-22T01:45:50.472Z,1.00
2018-09-22T01:48:20.851Z,1.00
2018-09-22T01:50:51.847Z,1.07
2018-09-22T01:53:22.159Z,1.27
2018-09-22T01:55:52.677Z,1.23
2018-09-22T01:58:23.269Z,1.60
2018-09-22T02:00:53.752Z,1.20
2018-09-22T02:03:24.608Z,1.10
2018-09-22T02:05:55.166Z,1.60
2018-09-22T02:08:25.722Z,1.10
2018-09-22T02:10:56.281Z,1.30
2018-09-22T02:13:26.888Z,1.53
2018-09-22T02:15:57.692Z,1.23
2018-09-22T02:18:28.925Z,1.40
2018-09-22T02:21:01.585Z,1.03
2018-09-22T02:23:32.084Z,1.20
2018-09-22T02:26:02.618Z,1.20
2018-09-22T02:28:33.176Z,2.00
2018-09-22T02:31:03.681Z,1.00
2018-09-22T02:33:34.201Z,1.10
2018-09-22T02:36:05.019Z,1.33
2018-09-22T02:38:35.715Z,1.90
2018-09-22T02:41:06.545Z,1.67
2018-09-22T02:43:37.069Z,1.10
2018-09-22T02:46:07.619Z,1.53
2018-09-22T02:48:37.849Z,1.27
2018-09-22T02:51:08.359Z,0.93
2018-09-22T02:53:39.461Z,1.20
2018-09-22T02:56:09.952Z,0.97
2018-09-22T02:58:40.191Z,1.07
2018-09-22T03:01:10.792Z,1.23
2018-09-22T03:03:42.852Z,0.93
2018-09-22T03:06:13.443Z,1.30
2018-09-22T03:08:44.010Z,1.37
2018-09-22T03:11:14.928Z,1.20
2018-09-22T03:13:45.505Z,1.30
2018-09-22T03:16:16.268Z,1.20
2018-09-22T03:18:46.622Z,1.00
2018-09-22T03:21:17.188Z,1.90
2018-09-22T03:23:47.676Z,1.07
2018-09-22T03:26:18.172Z,1.50
2018-09-22T03:28:49.036Z,1.03
2018-09-22T03:31:19.979Z,0.80
2018-09-22T03:33:50.690Z,1.57
2018-09-22T03:36:21.229Z,1.20
2018-09-22T03:38:51.764Z,1.13
2018-09-22T03:41:22.040Z,1.10
2018-09-22T03:43:52.529Z,0.73
2018-09-22T03:46:23.104Z,1.20
2018-09-22T03:48:53.641Z,1.00
2018-09-22T03:51:24.220Z,1.30
2018-09-22T03:53:55.509Z,1.40
2018-09-22T03:56:26.128Z,0.70
2018-09-22T03:58:56.693Z,0.90
2018-09-22T04:01:27.223Z,1.33
2018-09-22T04:03:57.464Z,1.00
2018-09-22T04:06:27.693Z,0.90
2018-09-22T04:08:57.962Z,1.20
2018-09-22T04:11:28.443Z,1.53
2018-09-22T04:13:59.234Z,1.67
2018-09-22T04:16:29.780Z,1.40
2018-09-22T04:19:00.932Z,2.03
2018-09-22T04:21:32.089Z,1.93
2018-09-22T04:24:13.139Z,1.93
2018-09-22T04:26:44.002Z,2.07
2018-09-22T04:29:14.497Z,2.27
2018-09-22T04:31:45.056Z,2.07
2018-09-22T04:34:15.941Z,2.27
2018-09-22T04:36:46.221Z,2.40
2018-09-22T04:39:16.864Z,1.50
2018-09-22T04:41:48.257Z,1.70
2018-09-22T04:44:18.485Z,1.43
2018-09-22T04:46:48.999Z,1.83
2018-09-22T04:49:19.673Z,1.47
2018-09-22T04:51:50.151Z,1.90
2018-09-22T04:54:20.384Z,1.67
2018-09-22T04:56:50.885Z,1.43
2018-09-22T04:59:21.667Z,1.50
2018-09-22T05:01:52.800Z,1.63
2018-09-22T05:04:23.513Z,1.70
2018-09-22T05:06:54.172Z,2.17
2018-09-22T05:09:24.680Z,2.23
2018-09-22T05:11:55.381Z,2.30
2018-09-22T05:14:26.208Z,2.17
2018-09-22T05:16:56.756Z,1.70
2018-09-22T05:19:28.042Z,1.97
2018-09-22T05:21:58.536Z,1.90
2018-09-22T05:24:29.016Z,1.50
2018-09-22T05:26:59.753Z,2.23
2018-09-22T05:29:30.803Z,2.40
2018-09-22T05:32:01.507Z,2.20
2018-09-22T05:34:31.760Z,2.10
2018-09-22T05:37:02.417Z,2.47
2018-09-22T05:39:32.943Z,2.10
2018-09-22T05:42:03.496Z,2.30
2018-09-22T05:44:34.836Z,2.30
2018-09-22T05:47:05.961Z,1.77
2018-09-22T05:49:37.524Z,2.10
2018-09-22T05:52:07.972Z,2.47
2018-09-22T05:54:38.696Z,1.53
2018-09-22T05:57:08.911Z,1.60
2018-09-22T05:59:39.623Z,2.10
2018-09-22T06:02:10.157Z,2.30
2018-09-22T06:04:40.410Z,2.10
2018-09-22T06:07:10.891Z,2.00
2018-09-22T06:09:41.162Z,1.63
2018-09-22T06:12:11.832Z,1.87
2018-09-22T06:14:42.131Z,2.33
2018-09-22T06:17:13.036Z,2.10
2018-09-22T06:19:43.596Z,2.07
2018-09-22T06:22:15.363Z,2.80
2018-09-22T06:24:45.856Z,1.90
2018-09-22T06:27:17.290Z,2.00
2018-09-22T06:29:47.840Z,2.60
2018-09-22T06:32:18.344Z,3.03
2018-09-22T06:34:48.875Z,1.90
2018-09-22T06:37:19.633Z,2.40
2018-09-22T06:39:50.156Z,1.83
2018-09-22T06:42:21.511Z,2.10
2018-09-22T06:44:52.012Z,2.27
2018-09-22T06:47:22.528Z,2.20
2018-09-22T06:49:53.550Z,2.33
2018-09-22T06:52:24.432Z,2.40
2018-09-22T06:54:54.962Z,2.10
2018-09-22T06:57:26.726Z,1.80
2018-09-22T06:59:57.211Z,1.93
2018-09-22T07:02:27.440Z,1.70
2018-09-22T07:04:57.662Z,1.77
2018-09-22T07:07:28.163Z,1.70
2018-09-22T07:09:58.668Z,1.47
2018-09-22T07:12:29.521Z,2.50
2018-09-22T07:14:59.743Z,2.13
2018-09-22T07:17:29.960Z,1.70
2018-09-22T07:20:00.504Z,2.30
2018-09-22T07:22:36.185Z,2.33
2018-09-22T07:25:08.766Z,1.77
2018-09-22T07:27:39.251Z,2.17
2018-09-22T07:30:09.851Z,1.93
2018-09-22T07:32:40.738Z,2.03
2018-09-22T07:35:11.416Z,2.03
2018-09-22T07:37:41.949Z,1.97
2018-09-22T07:40:12.493Z,2.07
2018-09-22T07:42:42.974Z,2.00
2018-09-22T07:45:13.473Z,2.00
2018-09-22T07:47:43.936Z,2.17
2018-09-22T07:50:14.177Z,2.30
2018-09-22T07:52:44.701Z,3.07
2018-09-22T07:55:15.270Z,2.03
2018-09-22T07:57:45.831Z,2.20
2018-09-22T08:00:16.427Z,2.80
2018-09-22T08:02:46.786Z,2.57
2018-09-22T08:05:17.251Z,2.40
2018-09-22T08:07:48.781Z,2.40
2018-09-22T08:10:20.337Z,2.63
2018-09-22T08:12:53.552Z,2.43
2018-09-22T08:15:25.942Z,2.43
2018-09-22T08:17:56.155Z,2.80
2018-09-22T08:20:26.708Z,2.80
2018-09-22T08:22:57.311Z,2.20
2018-09-22T08:25:27.881Z,2.83
2018-09-22T08:28:00.119Z,3.27
2018-09-22T08:30:30.764Z,2.60
2018-09-22T08:33:01.016Z,3.40
2018-09-22T08:35:31.819Z,3.10
2018-09-22T08:38:02.052Z,5.23
2018-09-22T08:40:32.760Z,4.83
2018-09-22T08:43:03.264Z,2.87
2018-09-22T08:45:33.655Z,3.00
2018-09-22T08:48:04.175Z,2.67
2018-09-22T08:50:35.579Z,3.33
2018-09-22T08:53:06.389Z,2.53
2018-09-22T08:55:36.904Z,2.70
2018-09-22T08:58:07.452Z,2.60
2018-09-22T09:00:38.008Z,2.77
2018-09-22T09:03:08.316Z,2.70
2018-09-22T09:05:38.752Z,2.30
2018-09-22T09:08:09.265Z,3.63
2018-09-22T09:10:39.887Z,2.80
2018-09-22T09:13:12.748Z,2.50
2018-09-22T09:15:43.384Z,2.30
2018-09-22T09:18:14.510Z,2.30
2018-09-22T09:20:44.836Z,2.20
2018-09-22T09:23:15.384Z,2.20
2018-09-22T09:25:45.819Z,2.50
2018-09-22T09:28:16.327Z,1.93
2018-09-22T09:30:46.888Z,2.23
2018-09-22T09:33:17.386Z,1.60
2018-09-22T09:35:47.603Z,1.73
2018-09-22T09:38:18.499Z,2.00
2018-09-22T09:40:49.278Z,2.43
2018-09-22T09:43:20.555Z,1.57
2018-09-22T09:45:50.923Z,1.70
2018-09-22T09:48:21.412Z,2.37
2018-09-22T09:50:52.045Z,1.70
2018-09-22T09:53:22.358Z,1.83
2018-09-22T09:55:52.545Z,1.63
2018-09-22T09:58:23.033Z,1.90
2018-09-22T10:00:53.584Z,1.70
2018-09-22T10:03:24.123Z,1.63
2018-09-22T10:05:55.279Z,1.63
2018-09-22T10:08:25.480Z,1.70
2018-09-22T10:10:55.816Z,1.27
2018-09-22T10:13:26.322Z,5.00
2018-09-22T10:15:56.905Z,1.70
2018-09-22T10:18:27.294Z,2.17
2018-09-22T10:20:58.087Z,1.40
2018-09-22T10:23:28.576Z,1.43
2018-09-22T10:25:59.067Z,1.23
2018-09-22T10:28:29.375Z,1.93
2018-09-22T10:30:59.853Z,1.77
2018-09-22T10:33:30.346Z,1.43
2018-09-22T10:36:00.872Z,1.50
2018-09-22T10:38:31.370Z,2.00
2018-09-22T10:41:01.577Z,2.20
2018-09-22T10:43:32.068Z,1.37
2018-09-22T10:46:02.668Z,2.00
2018-09-22T10:48:33.281Z,2.73
2018-09-22T10:51:03.792Z,1.97
2018-09-22T10:53:34.295Z,1.77
2018-09-22T10:56:04.490Z,1.50
2018-09-22T10:58:35.099Z,1.63
2018-09-22T11:01:05.924Z,2.00
2018-09-22T11:03:36.764Z,1.77
2018-09-22T11:06:07.704Z,1.37
2018-09-22T11:08:38.332Z,1.60
2018-09-22T11:11:10.833Z,1.80
2018-09-22T11:13:41.323Z,1.37
2018-09-22T11:16:11.831Z,1.23
2018-09-22T11:18:42.313Z,2.17
2018-09-22T11:21:12.947Z,1.23
2018-09-22T11:23:43.466Z,1.80
2018-09-22T11:26:13.985Z,1.90
2018-09-22T11:28:44.578Z,1.67
2018-09-22T11:31:15.148Z,1.20
2018-09-22T11:33:45.712Z,2.03
2018-09-22T11:36:16.211Z,1.37
2018-09-22T11:38:47.027Z,1.90
2018-09-22T11:41:17.490Z,1.43
2018-09-22T11:43:47.972Z,2.00
2018-09-22T11:46:18.623Z,1.10
2018-09-22T11:48:49.309Z,1.20
2018-09-22T11:51:19.512Z,1.67
2018-09-22T11:53:49.991Z,1.27
2018-09-22T11:56:20.509Z,1.47
2018-09-22T11:58:50.911Z,1.60
2018-09-22T12:01:21.401Z,1.37
2018-09-22T12:03:51.883Z,1.57
2018-09-22T12:06:22.181Z,1.77
2018-09-22T12:08:52.709Z,1.27
2018-09-22T12:11:23.318Z,1.33
2018-09-22T12:14:00.136Z,0.83
2018-09-22T12:16:30.740Z,1.40
2018-09-22T12:19:01.435Z,1.43
2018-09-22T12:21:31.816Z,1.80
2018-09-22T12:24:02.037Z,1.40
2018-09-22T12:26:32.236Z,2.20
2018-09-22T12:29:02.504Z,1.73
2018-09-22T12:31:32.762Z,1.97
2018-09-22T12:34:03.843Z,1.17
2018-09-22T12:36:34.393Z,1.20
2018-09-22T12:39:08.020Z,1.13
2018-09-22T12:41:39.075Z,1.63
2018-09-22T12:44:09.646Z,1.57
2018-09-22T12:46:40.178Z,1.20
2018-09-22T12:49:12.718Z,1.10
2018-09-22T12:51:43.189Z,1.37
2018-09-22T12:54:14.404Z,1.60
2018-09-22T12:56:44.894Z,1.70
2018-09-22T12:59:15.133Z,1.27
2018-09-22T13:01:45.609Z,1.20
2018-09-22T13:04:16.101Z,1.27
2018-09-22T13:06:46.593Z,1.40
2018-09-22T13:09:16.820Z,1.03
2018-09-22T13:11:47.315Z,1.33
2018-09-22T13:14:17.884Z,1.70
2018-09-22T13:16:48.444Z,1.40
2018-09-22T13:19:19.740Z,1.60
2018-09-22T13:21:50.358Z,1.50
2018-09-22T13:24:20.919Z,1.20
2018-09-22T13:26:52.249Z,1.20
2018-09-22T13:29:22.901Z,0.80
2018-09-22T13:31:53.575Z,0.97
2018-09-22T13:34:24.027Z,1.47
2018-09-22T13:36:54.584Z,1.40
2018-09-22T13:39:25.056Z,1.20
2018-09-22T13:41:55.564Z,1.73
2018-09-22T13:44:26.059Z,1.20
2018-09-22T13:46:56.559Z,1.20
2018-09-22T13:49:27.060Z,1.90
2018-09-22T13:51:57.563Z,1.30
2018-09-22T13:54:28.312Z,1.20
2018-09-22T13:56:58.520Z,1.50
2018-09-22T13:59:29.025Z,1.50
2018-09-22T14:01:59.220Z,1.10
2018-09-22T14:04:29.429Z,1.10
2018-09-22T14:06:59.644Z,1.47
2018-09-22T14:09:29.944Z,1.23
2018-09-22T14:12:00.212Z,1.80
2018-09-22T14:14:30.396Z,1.50
2018-09-22T14:17:00.932Z,1.20
2018-09-22T14:19:31.186Z,1.20
2018-09-22T14:22:02.464Z,1.80
2018-09-22T14:24:33.028Z,1.80
2018-09-22T14:27:03.645Z,1.53
2018-09-22T14:29:34.301Z,1.30
2018-09-22T14:32:05.218Z,1.20
2018-09-22T14:34:35.645Z,1.23
2018-09-22T14:37:06.223Z,2.00
2018-09-22T14:39:36.753Z,1.60
2018-09-22T14:42:07.237Z,1.27
2018-09-22T14:44:37.767Z,1.57
2018-09-22T14:47:08.272Z,1.37
2018-09-22T14:49:38.784Z,1.70
2018-09-22T14:52:09.375Z,1.30
2018-09-22T14:54:39.604Z,1.43
2018-09-22T14:57:10.099Z,2.10
2018-09-22T14:59:40.655Z,1.40
2018-09-22T15:02:10.876Z,1.70
2018-09-22T15:04:41.113Z,1.30
2018-09-22T15:07:11.594Z,1.50
2018-09-22T15:09:42.128Z,1.83
2018-09-22T15:12:12.357Z,1.50
2018-09-22T15:14:43.108Z,1.20
2018-09-22T15:17:13.803Z,2.10
2018-09-22T15:19:45.180Z,1.50
2018-09-22T15:22:15.878Z,1.30
2018-09-22T15:24:46.462Z,1.20
2018-09-22T15:27:17.155Z,1.10
2018-09-22T15:29:47.952Z,1.13
2018-09-22T15:32:18.225Z,1.53
2018-09-22T15:34:48.723Z,1.10
2018-09-22T15:37:19.188Z,1.30
2018-09-22T15:39:49.562Z,2.23
2018-09-22T15:42:19.763Z,1.13
2018-09-22T15:44:50.473Z,2.17
2018-09-22T15:47:20.942Z,1.57
2018-09-22T15:49:51.643Z,2.10
2018-09-22T15:52:22.217Z,1.37
2018-09-22T15:54:52.573Z,2.10
2018-09-22T15:57:23.169Z,1.23
2018-09-22T15:59:53.487Z,1.43
2018-09-22T16:02:23.818Z,1.60
2018-09-22T16:04:54.204Z,2.03
2018-09-22T16:07:24.944Z,1.47
2018-09-22T16:09:55.406Z,1.50
2018-09-22T16:12:25.929Z,1.33
2018-09-22T16:14:56.162Z,1.30
2018-09-22T16:17:26.386Z,1.17
2018-09-22T16:19:56.696Z,1.10
2018-09-22T16:22:27.810Z,1.70
2018-09-22T16:24:58.922Z,1.50
2018-09-22T16:27:29.100Z,1.67
2018-09-22T16:30:01.013Z,1.47
2018-09-22T16:32:31.863Z,1.47
2018-09-22T16:35:02.450Z,1.60
2018-09-22T16:37:32.902Z,1.43
2018-09-22T16:40:08.798Z,1.30
2018-09-22T16:42:39.318Z,1.43
2018-09-22T16:45:10.051Z,1.67
2018-09-22T16:47:41.174Z,2.00
2018-09-22T16:50:12.263Z,1.93
2018-09-22T16:52:43.451Z,1.70
2018-09-22T16:55:13.980Z,1.63
2018-09-22T16:57:44.493Z,2.60
2018-09-22T17:00:14.996Z,1.80
2018-09-22T17:02:45.600Z,1.40
2018-09-22T17:05:16.464Z,1.67
2018-09-22T17:07:46.673Z,1.70
2018-09-22T17:10:16.851Z,1.83
2018-09-22T17:12:47.374Z,1.60
2018-09-22T17:15:17.873Z,1.50
2018-09-22T17:17:48.903Z,1.63
2018-09-22T17:20:19.403Z,1.80
2018-09-22T17:22:49.856Z,2.30
2018-09-22T17:25:20.107Z,1.80
2018-09-22T17:27:53.315Z,1.67
2018-09-22T17:30:23.904Z,1.90
2018-09-22T17:32:54.352Z,1.60
2018-09-22T17:35:25.024Z,2.40
2018-09-22T17:37:55.275Z,2.50
2018-09-22T17:40:26.312Z,1.77
2018-09-22T17:43:07.700Z,2.30
2018-09-22T17:45:39.856Z,1.90
2018-09-22T17:48:10.479Z,2.27
2018-09-22T17:50:40.762Z,2.47
2018-09-22T17:53:13.266Z,2.30
2018-09-22T17:55:44.025Z,2.83
2018-09-22T17:58:14.523Z,2.67
2018-09-22T18:00:44.744Z,2.67
2018-09-22T18:03:15.268Z,3.00
2018-09-22T18:05:45.520Z,1.43
2018-09-22T18:08:16.021Z,3.00
2018-09-22T18:10:46.527Z,1.83
2018-09-22T18:13:17.344Z,2.10
2018-09-22T18:15:47.853Z,2.40
2018-09-22T18:18:18.200Z,2.40
2018-09-22T18:20:48.688Z,2.27
2018-09-22T18:23:19.218Z,2.20
2018-09-22T18:25:49.431Z,2.10
2018-09-22T18:28:19.673Z,1.70
2018-09-22T18:30:50.201Z,1.80
2018-09-22T18:33:20.419Z,2.00
2018-09-22T18:35:50.929Z,2.13
2018-09-22T18:38:21.155Z,2.13
2018-09-22T18:40:51.753Z,2.17
2018-09-22T18:43:22.406Z,2.23
2018-09-22T18:45:53.252Z,3.00
2018-09-22T18:48:24.500Z,2.30
2018-09-22T18:50:55.125Z,2.20
2018-09-22T18:53:25.608Z,1.60
2018-09-22T18:55:56.186Z,1.50
2018-09-22T18:58:26.924Z,1.90
2018-09-22T19:00:57.588Z,2.20
2018-09-22T19:03:27.774Z,1.90
2018-09-22T19:05:58.439Z,2.40
2018-09-22T19:08:29.481Z,4.53
2018-09-22T19:10:59.814Z,2.57
2018-09-22T19:13:33.664Z,3.37
2018-09-22T19:16:08.880Z,3.07
2018-09-22T19:18:46.159Z,2.60
2018-09-22T19:21:22.523Z,1.90
2018-09-22T19:23:57.661Z,2.40
2018-09-22T19:26:36.412Z,2.00
2018-09-22T19:29:15.052Z,2.63
2018-09-22T19:32:22.913Z,2.40
2018-09-22T19:34:59.859Z,2.00
2018-09-22T19:37:40.717Z,2.30
2018-09-22T19:40:19.664Z,2.77
2018-09-22T19:43:06.396Z,2.30
2018-09-22T19:45:43.453Z,2.50
2018-09-22T19:48:34.508Z,2.40
2018-09-22T19:51:09.095Z,2.90
2018-09-22T19:53:41.260Z,2.40
2018-09-22T19:56:11.491Z,2.60
2018-09-22T19:58:42.068Z,2.87
2018-09-22T20:01:12.737Z,2.40
2018-09-22T20:03:42.964Z,2.63
2018-09-22T20:06:13.178Z,3.03
2018-09-22T20:08:43.669Z,3.07
2018-09-22T20:11:14.160Z,2.20
2018-09-22T20:13:44.916Z,3.37
2018-09-22T20:16:15.403Z,2.50
2018-09-22T20:18:45.611Z,2.57
2018-09-22T20:21:16.123Z,2.40
2018-09-22T20:23:46.454Z,2.60
2018-09-22T20:26:17.232Z,2.30
2018-09-22T20:28:47.832Z,3.30
2018-09-22T20:31:18.294Z,2.83
2018-09-22T20:33:48.771Z,2.40
2018-09-22T20:36:19.436Z,2.20
2018-09-22T20:38:50.089Z,2.00
2018-09-22T20:41:20.840Z,2.77
2018-09-22T20:43:51.147Z,3.60
2018-09-22T20:46:21.874Z,3.00
2018-09-22T20:48:52.388Z,2.60
2018-09-22T20:51:22.656Z,3.00
2018-09-22T20:53:53.135Z,3.10
2018-09-22T20:56:23.347Z,2.83
2018-09-22T20:58:53.684Z,3.03
2018-09-22T21:01:24.412Z,2.50
2018-09-22T21:03:55.023Z,2.50
2018-09-22T21:06:25.905Z,2.80
2018-09-22T21:08:56.167Z,2.47
2018-09-22T21:11:26.814Z,2.63
2018-09-22T21:13:57.015Z,2.43
2018-09-22T21:16:27.499Z,2.77
2018-09-22T21:18:57.721Z,2.50
2018-09-22T21:21:28.056Z,2.83
2018-09-22T21:23:58.659Z,3.30
2018-09-22T21:26:29.693Z,3.40
2018-09-22T21:29:00.515Z,2.93
2018-09-22T21:31:31.402Z,3.20
2018-09-22T21:34:01.833Z,3.47
2018-09-22T21:36:33.000Z,3.57
2018-09-22T21:39:04.830Z,2.53
2018-09-22T21:41:35.311Z,2.60
2018-09-22T21:44:05.848Z,3.10
2018-09-22T21:46:36.356Z,2.50
2018-09-22T21:49:07.303Z,2.73
2018-09-22T21:51:38.046Z,1.93
2018-09-22T21:54:08.704Z,1.90
2018-09-22T21:56:39.445Z,3.47
2018-09-22T21:59:10.219Z,3.67
2018-09-22T22:01:41.647Z,2.97
2018-09-22T22:04:12.289Z,2.93
2018-09-22T22:06:42.547Z,2.77
2018-09-22T22:09:14.120Z,3.10
2018-09-22T22:11:44.441Z,2.80
2018-09-22T22:14:14.908Z,2.50
2018-09-22T22:16:45.188Z,3.30
2018-09-22T22:19:15.708Z,2.73
2018-09-22T22:21:46.604Z,2.60
2018-09-22T22:24:17.119Z,3.03
2018-09-22T22:26:48.792Z,3.10
2018-09-22T22:29:19.057Z,3.60
2018-09-22T22:31:49.272Z,2.80
2018-09-22T22:34:21.508Z,3.43
2018-09-22T22:36:52.020Z,3.67
2018-09-22T22:39:22.539Z,4.10
2018-09-22T22:41:53.076Z,3.47
2018-09-22T22:44:23.632Z,2.60
2018-09-22T22:46:54.291Z,2.63
2018-09-22T22:49:25.148Z,3.80
2018-09-22T22:51:55.675Z,4.53
2018-09-22T22:54:25.940Z,3.50
2018-09-22T22:56:56.412Z,3.27
2018-09-22T22:59:26.949Z,2.17
2018-09-22T23:01:57.436Z,2.63
2018-09-22T23:04:28.033Z,2.90
2018-09-22T23:06:58.512Z,2.60
2018-09-22T23:09:29.693Z,2.60
2018-09-22T23:12:01.733Z,2.60
2018-09-22T23:14:31.936Z,2.80
2018-09-22T23:17:02.515Z,2.23
2018-09-22T23:19:32.780Z,2.70
2018-09-22T23:22:03.521Z,2.10
2018-09-22T23:24:34.055Z,2.50
2018-09-22T23:27:04.620Z,3.00
2018-09-22T23:29:35.156Z,4.00
2018-09-22T23:32:06.913Z,2.97
2018-09-22T23:34:37.411Z,2.20
2018-09-22T23:37:07.907Z,1.63
2018-09-22T23:39:38.420Z,1.40
2018-09-22T23:42:08.901Z,2.07
2018-09-22T23:44:39.420Z,1.50
2018-09-22T23:47:10.252Z,1.10
2018-09-22T23:49:40.460Z,1.30
2018-09-22T23:52:11.335Z,1.60
2018-09-22T23:54:41.827Z,2.00
2018-09-22T23:57:12.355Z,1.70
2018-09-22T23:59:42.888Z,1.70
